createdAt,value
2023-02-22T00:01:51.553Z,2.20
2023-02-22T00:04:41.884Z,1.93
2023-02-22T00:07:31.580Z,1.83
2023-02-22T00:10:21.226Z,1.83
2023-02-22T00:13:13.435Z,1.90
2023-02-22T00:16:03.000Z,2.30
2023-02-22T00:18:54.538Z,2.30
2023-02-22T00:21:44.997Z,1.83
2023-02-22T00:24:36.394Z,1.70
2023-02-22T00:27:25.609Z,2.07
2023-02-22T00:30:19.302Z,1.80
2023-02-22T00:33:08.629Z,2.03
2023-02-22T00:35:59.160Z,1.90
2023-02-22T00:38:49.095Z,2.10
2023-02-22T00:41:38.473Z,1.60
2023-02-22T00:44:27.881Z,2.50
2023-02-22T00:47:16.667Z,2.10
2023-02-22T00:50:05.995Z,2.03
2023-02-22T00:52:57.778Z,2.43
2023-02-22T00:55:47.228Z,2.03
2023-02-22T00:58:36.351Z,2.00
2023-02-22T01:01:25.367Z,1.77
2023-02-22T01:04:15.356Z,1.83
2023-02-22T01:07:05.187Z,2.40
2023-02-22T01:09:56.061Z,1.90
2023-02-22T01:12:45.363Z,1.77
2023-02-22T01:15:35.220Z,2.07
2023-02-22T01:18:24.179Z,1.57
2023-02-22T01:21:13.254Z,2.20
2023-02-22T01:24:04.216Z,1.77
2023-02-22T01:26:54.814Z,1.80
2023-02-22T01:29:44.038Z,2.00
2023-02-22T01:32:33.857Z,1.50
2023-02-22T01:35:25.094Z,1.80
2023-02-22T01:38:14.554Z,1.93
2023-02-22T01:41:04.026Z,1.70
2023-02-22T01:43:56.227Z,1.50
2023-02-22T01:46:45.700Z,1.77
2023-02-22T01:49:37.506Z,1.60
2023-02-22T01:52:27.911Z,1.60
2023-02-22T01:55:17.889Z,2.00
2023-02-22T01:58:09.198Z,2.10
2023-02-22T02:01:01.332Z,2.17
2023-02-22T02:03:52.166Z,1.70
2023-02-22T02:06:42.550Z,1.63
2023-02-22T02:09:38.156Z,1.80
2023-02-22T02:12:30.317Z,2.33
2023-02-22T02:15:23.770Z,1.60
2023-02-22T02:18:15.434Z,2.00
2023-02-22T02:21:41.277Z,2.30
2023-02-22T02:24:57.744Z,2.17
2023-02-22T02:28:03.848Z,2.13
2023-02-22T02:31:10.657Z,2.20
2023-02-22T02:34:04.760Z,2.30
2023-02-22T02:36:59.499Z,2.27
2023-02-22T02:39:53.172Z,2.33
2023-02-22T02:42:46.130Z,2.27
2023-02-22T02:45:42.513Z,2.20
2023-02-22T02:48:33.232Z,1.93
2023-02-22T02:51:24.841Z,2.43
2023-02-22T02:54:14.822Z,2.43
2023-02-22T02:57:04.652Z,2.70
2023-02-22T02:59:54.104Z,2.50
2023-02-22T03:02:51.630Z,2.10
2023-02-22T03:05:55.880Z,2.30
2023-02-22T03:08:51.996Z,2.10
2023-02-22T03:11:48.724Z,1.97
2023-02-22T03:14:42.478Z,2.23
2023-02-22T03:17:41.703Z,1.90
2023-02-22T03:20:32.746Z,2.23
2023-02-22T03:23:27.343Z,2.33
2023-02-22T03:26:24.225Z,2.27
2023-02-22T03:29:19.618Z,2.30
2023-02-22T03:32:11.690Z,2.27
2023-02-22T03:35:06.582Z,2.03
2023-02-22T03:38:00.554Z,2.30
2023-02-22T03:40:52.554Z,2.17
2023-02-22T03:43:45.569Z,2.50
2023-02-22T03:46:38.053Z,2.37
2023-02-22T03:49:35.238Z,2.23
2023-02-22T03:52:26.388Z,2.20
2023-02-22T03:55:18.265Z,2.43
2023-02-22T03:58:11.018Z,2.00
2023-02-22T04:01:02.326Z,2.70
2023-02-22T04:03:52.113Z,2.53
2023-02-22T04:06:41.482Z,2.27
2023-02-22T04:09:31.503Z,2.03
2023-02-22T04:12:21.159Z,2.07
2023-02-22T04:15:22.043Z,2.10
2023-02-22T04:18:17.323Z,2.20
2023-02-22T04:21:09.330Z,2.57
2023-02-22T04:24:03.490Z,2.20
2023-02-22T04:26:55.373Z,1.87
2023-02-22T04:29:45.754Z,2.20
2023-02-22T04:32:35.922Z,2.00
2023-02-22T04:35:27.669Z,2.33
2023-02-22T04:38:17.090Z,2.10
2023-02-22T04:41:06.918Z,2.17
2023-02-22T04:49:17.714Z,2.30
2023-02-22T04:52:10.538Z,2.50
2023-02-22T04:55:01.489Z,2.20
2023-02-22T04:57:50.541Z,2.60
2023-02-22T05:00:42.185Z,2.53
2023-02-22T05:03:31.971Z,2.43
2023-02-22T05:06:21.245Z,2.10
2023-02-22T05:09:12.118Z,2.20
2023-02-22T05:12:01.285Z,2.23
2023-02-22T05:14:50.683Z,2.43
2023-02-22T05:17:39.801Z,2.60
2023-02-22T05:20:31.791Z,2.20
2023-02-22T05:23:21.371Z,1.93
2023-02-22T05:26:12.024Z,2.40
2023-02-22T05:29:01.495Z,2.07
2023-02-22T05:31:50.980Z,2.13
2023-02-22T05:34:40.281Z,2.10
2023-02-22T05:37:29.233Z,2.93
2023-02-22T05:40:20.070Z,2.37
2023-02-22T05:43:11.627Z,3.03
2023-02-22T05:46:00.779Z,2.07
2023-02-22T05:48:50.061Z,2.00
2023-02-22T05:51:39.430Z,2.30
2023-02-22T05:54:29.314Z,2.50
2023-02-22T05:57:18.718Z,3.10
2023-02-22T06:00:11.566Z,2.60
2023-02-22T06:03:05.468Z,2.97
2023-02-22T06:05:54.650Z,2.50
2023-02-22T06:08:44.817Z,2.97
2023-02-22T06:11:33.993Z,2.50
2023-02-22T06:14:24.649Z,2.63
2023-02-22T06:17:18.872Z,2.70
2023-02-22T06:20:10.320Z,3.13
2023-02-22T06:23:00.582Z,2.37
2023-02-22T06:25:50.375Z,3.40
2023-02-22T06:28:39.755Z,4.10
2023-02-22T06:31:29.326Z,3.63
2023-02-22T06:34:23.202Z,3.90
2023-02-22T06:37:13.376Z,3.33
2023-02-22T06:40:05.523Z,2.87
2023-02-22T06:42:55.141Z,3.40
2023-02-22T06:45:44.661Z,3.87
2023-02-22T06:48:34.158Z,3.60
2023-02-22T06:51:24.728Z,3.27
2023-02-22T06:54:14.146Z,3.57
2023-02-22T06:57:04.328Z,3.10
2023-02-22T06:59:54.113Z,2.60
2023-02-22T07:02:44.202Z,3.47
2023-02-22T07:05:33.198Z,3.17
2023-02-22T07:08:23.982Z,3.40
2023-02-22T07:11:13.234Z,3.00
2023-02-22T07:14:02.436Z,3.77
2023-02-22T07:16:51.762Z,3.00
2023-02-22T07:19:40.644Z,3.73
2023-02-22T07:22:30.819Z,3.70
2023-02-22T07:25:21.542Z,3.70
2023-02-22T07:28:11.833Z,4.90
2023-02-22T07:31:01.546Z,3.53
2023-02-22T07:33:51.603Z,3.40
2023-02-22T07:36:40.417Z,3.80
2023-02-22T07:39:29.418Z,3.50
2023-02-22T07:42:20.017Z,3.20
2023-02-22T07:45:09.402Z,2.93
2023-02-22T07:47:58.803Z,2.63
2023-02-22T07:50:48.238Z,2.40
2023-02-22T07:53:37.076Z,3.40
2023-02-22T07:56:26.293Z,3.23
2023-02-22T07:59:16.903Z,3.73
2023-02-22T08:02:06.443Z,3.20
2023-02-22T08:04:55.914Z,2.57
2023-02-22T08:07:45.317Z,2.93
2023-02-22T08:10:36.324Z,2.93
2023-02-22T08:13:26.043Z,3.40
2023-02-22T08:16:16.525Z,2.67
2023-02-22T08:19:05.654Z,2.60
2023-02-22T08:21:55.518Z,2.63
2023-02-22T08:24:44.989Z,3.13
2023-02-22T08:27:34.600Z,2.53
2023-02-22T08:30:25.080Z,3.63
2023-02-22T08:33:20.062Z,3.80
2023-02-22T08:36:10.504Z,3.40
2023-02-22T08:38:59.918Z,2.90
2023-02-22T08:41:49.353Z,3.40
2023-02-22T08:44:39.097Z,3.33
2023-02-22T08:47:28.112Z,3.00
2023-02-22T08:50:21.020Z,3.70
2023-02-22T08:53:11.636Z,2.93
2023-02-22T08:56:00.756Z,3.00
2023-02-22T08:58:49.713Z,2.70
2023-02-22T09:01:39.014Z,2.33
2023-02-22T09:04:28.608Z,2.90
2023-02-22T09:07:19.496Z,3.50
2023-02-22T09:10:09.046Z,3.27
2023-02-22T09:13:00.750Z,2.50
2023-02-22T09:15:49.852Z,2.80
2023-02-22T09:18:44.065Z,2.77
2023-02-22T09:21:34.184Z,2.43
2023-02-22T09:24:25.031Z,3.63
2023-02-22T09:27:13.922Z,2.90
2023-02-22T09:30:03.535Z,2.83
2023-02-22T09:32:54.316Z,2.90
2023-02-22T09:35:46.661Z,2.30
2023-02-22T09:38:35.705Z,2.10
2023-02-22T09:41:34.593Z,3.10
2023-02-22T09:44:36.301Z,2.67
2023-02-22T09:47:32.671Z,2.80
2023-02-22T09:50:24.107Z,2.77
2023-02-22T09:53:22.024Z,2.60
2023-02-22T09:56:12.993Z,2.30
2023-02-22T09:59:05.712Z,2.50
2023-02-22T10:02:00.469Z,2.50
2023-02-22T10:04:52.891Z,2.80
2023-02-22T10:07:45.376Z,2.60
2023-02-22T10:10:36.916Z,2.00
2023-02-22T10:13:32.253Z,2.20
2023-02-22T10:16:28.225Z,2.47
2023-02-22T10:19:26.603Z,2.10
2023-02-22T10:22:24.775Z,2.13
2023-02-22T10:25:18.064Z,2.60
2023-02-22T10:28:13.710Z,3.10
2023-02-22T10:31:05.628Z,2.43
2023-02-22T10:33:59.761Z,2.57
2023-02-22T10:36:51.161Z,2.50
2023-02-22T10:39:41.470Z,1.93
2023-02-22T10:42:31.144Z,1.83
2023-02-22T10:45:23.664Z,2.17
2023-02-22T10:48:15.127Z,2.20
2023-02-22T10:51:08.663Z,2.63
2023-02-22T10:54:04.105Z,2.83
2023-02-22T10:56:55.646Z,2.10
2023-02-22T10:59:45.356Z,2.57
2023-02-22T11:02:35.714Z,2.20
2023-02-22T11:05:30.213Z,1.83
2023-02-22T11:08:29.127Z,1.90
2023-02-22T11:11:25.231Z,1.73
2023-02-22T11:14:16.408Z,1.90
2023-02-22T11:17:09.103Z,1.63
2023-02-22T11:19:58.473Z,1.67
2023-02-22T11:22:47.532Z,1.67
2023-02-22T11:25:39.283Z,1.70
2023-02-22T11:28:32.893Z,1.63
2023-02-22T11:31:23.540Z,2.10
2023-02-22T11:34:28.694Z,1.53
2023-02-22T11:37:22.362Z,1.90
2023-02-22T11:40:18.443Z,1.80
2023-02-22T11:43:17.129Z,1.77
2023-02-22T11:46:08.574Z,1.60
2023-02-22T11:49:04.715Z,1.37
2023-02-22T11:52:11.206Z,1.60
2023-02-22T11:55:29.743Z,1.73
2023-02-22T11:58:40.012Z,1.30
2023-02-22T12:01:34.844Z,1.80
2023-02-22T12:04:45.419Z,1.60
2023-02-22T12:07:43.381Z,1.20
2023-02-22T12:10:44.242Z,1.60
2023-02-22T12:13:43.809Z,1.60
2023-02-22T12:16:39.392Z,1.40
2023-02-22T12:19:33.185Z,1.57
2023-02-22T12:22:24.513Z,1.40
2023-02-22T12:25:20.351Z,1.37
2023-02-22T12:28:24.374Z,1.53
2023-02-22T12:31:23.144Z,1.67
2023-02-22T12:34:17.409Z,1.30
2023-02-22T12:37:13.435Z,1.60
2023-02-22T12:40:09.284Z,1.40
2023-02-22T12:43:01.105Z,1.40
2023-02-22T12:45:54.673Z,1.50
2023-02-22T12:48:48.796Z,1.63
2023-02-22T12:51:44.510Z,1.20
2023-02-22T12:54:43.018Z,1.67
2023-02-22T12:57:39.070Z,1.57
2023-02-22T13:00:29.855Z,1.33
2023-02-22T13:03:29.057Z,1.67
2023-02-22T13:06:32.153Z,1.30
2023-02-22T13:09:36.154Z,1.27
2023-02-22T13:12:28.159Z,1.43
2023-02-22T13:15:20.641Z,1.30
2023-02-22T13:18:15.983Z,1.30
2023-02-22T13:21:06.823Z,1.73
2023-02-22T13:24:04.896Z,1.90
2023-02-22T13:26:56.908Z,1.87
2023-02-22T13:29:47.842Z,1.33
2023-02-22T13:32:47.942Z,1.50
2023-02-22T13:36:01.250Z,1.30
2023-02-22T13:39:28.008Z,1.50
2023-02-22T13:42:39.663Z,1.40
2023-02-22T13:45:51.802Z,1.40
2023-02-22T13:48:58.399Z,1.67
2023-02-22T13:51:50.664Z,1.17
2023-02-22T13:54:45.075Z,1.33
2023-02-22T13:57:39.765Z,1.30
2023-02-22T14:00:44.488Z,1.70
2023-02-22T14:03:40.978Z,1.30
2023-02-22T14:06:38.230Z,1.43
2023-02-22T14:09:47.022Z,1.30
2023-02-22T14:12:51.252Z,1.30
2023-02-22T14:16:20.696Z,1.47
2023-02-22T14:19:16.077Z,1.50
2023-02-22T14:22:08.788Z,1.40
2023-02-22T14:24:59.025Z,1.20
2023-02-22T14:27:47.523Z,1.37
2023-02-22T14:30:38.157Z,1.27
2023-02-22T14:33:56.455Z,1.47
2023-02-22T14:36:52.040Z,1.30
2023-02-22T14:39:43.529Z,1.30
2023-02-22T14:42:35.921Z,1.57
2023-02-22T14:45:27.396Z,1.40
2023-02-22T14:48:25.081Z,1.33
2023-02-22T14:51:21.924Z,1.47
2023-02-22T14:54:16.193Z,1.40
2023-02-22T14:57:15.160Z,1.70
2023-02-22T15:00:19.834Z,1.73
2023-02-22T15:03:19.049Z,1.27
2023-02-22T15:06:15.007Z,1.30
2023-02-22T15:09:09.985Z,1.50
2023-02-22T15:12:14.043Z,1.23
2023-02-22T15:15:17.364Z,1.30
2023-02-22T15:18:12.684Z,1.17
2023-02-22T15:21:07.090Z,1.20
2023-02-22T15:23:57.375Z,1.40
2023-02-22T15:27:00.339Z,1.40
2023-02-22T15:29:50.600Z,1.50
2023-02-22T15:32:57.134Z,1.50
2023-02-22T15:35:55.701Z,1.57
2023-02-22T15:38:49.248Z,1.53
2023-02-22T15:41:38.029Z,1.70
2023-02-22T15:44:27.630Z,1.40
2023-02-22T15:47:19.598Z,1.47
2023-02-22T15:50:25.870Z,1.70
2023-02-22T15:53:27.427Z,1.33
2023-02-22T15:56:17.919Z,1.40
2023-02-22T15:59:14.992Z,1.63
2023-02-22T16:02:04.106Z,1.67
2023-02-22T16:04:59.937Z,2.10
2023-02-22T16:07:51.040Z,1.73
2023-02-22T16:10:41.341Z,1.50
2023-02-22T16:13:33.054Z,1.70
2023-02-22T16:16:24.421Z,1.40
2023-02-22T16:19:34.581Z,1.67
2023-02-22T16:22:29.219Z,2.60
2023-02-22T16:25:30.113Z,1.60
2023-02-22T16:28:34.056Z,2.20
2023-02-22T16:31:25.486Z,2.47
2023-02-22T16:34:15.946Z,1.83
2023-02-22T16:37:04.586Z,1.90
2023-02-22T16:39:53.344Z,2.07
2023-02-22T16:42:43.244Z,1.73
2023-02-22T16:45:31.739Z,1.80
2023-02-22T16:48:22.354Z,1.30
2023-02-22T16:51:14.961Z,1.40
2023-02-22T16:54:04.126Z,1.80
2023-02-22T16:57:05.136Z,1.97
2023-02-22T16:59:57.380Z,1.77
2023-02-22T17:02:46.994Z,1.40
2023-02-22T17:05:36.846Z,1.50
2023-02-22T17:08:25.808Z,1.50
2023-02-22T17:11:15.808Z,1.57
2023-02-22T17:14:04.806Z,1.80
2023-02-22T17:16:54.820Z,1.60
2023-02-22T17:19:43.554Z,1.50
2023-02-22T17:22:32.312Z,1.70
2023-02-22T17:25:24.286Z,1.80
2023-02-22T17:28:13.164Z,1.73
2023-02-22T17:31:02.498Z,1.93
2023-02-22T17:33:52.620Z,2.03
2023-02-22T17:36:42.178Z,2.13
2023-02-22T17:39:30.913Z,2.03
2023-02-22T17:42:19.709Z,2.13
2023-02-22T17:45:09.469Z,1.90
2023-02-22T17:47:59.643Z,2.10
2023-02-22T17:50:50.517Z,2.50
2023-02-22T17:53:39.920Z,1.70
2023-02-22T17:56:28.501Z,1.60
2023-02-22T17:59:17.139Z,2.10
2023-02-22T18:02:06.005Z,2.03
2023-02-22T18:04:54.850Z,2.37
2023-02-22T18:07:45.132Z,1.87
2023-02-22T18:10:33.735Z,1.43
2023-02-22T18:13:22.846Z,1.83
2023-02-22T18:16:11.901Z,1.80
2023-02-22T18:19:01.673Z,1.80
2023-02-22T18:21:50.244Z,1.73
2023-02-22T18:24:40.119Z,1.40
2023-02-22T18:27:30.239Z,1.83
2023-02-22T18:30:19.427Z,1.90
2023-02-22T18:33:11.337Z,2.00
2023-02-22T18:36:00.567Z,1.40
2023-02-22T18:38:50.245Z,1.50
2023-02-22T18:41:40.550Z,1.50
2023-02-22T18:44:29.622Z,1.50
2023-02-22T18:47:18.748Z,1.93
2023-02-22T18:50:08.632Z,1.57
2023-02-22T18:52:57.624Z,1.83
2023-02-22T18:55:46.398Z,1.83
2023-02-22T18:58:38.691Z,1.50
2023-02-22T19:01:27.871Z,1.80
2023-02-22T19:04:18.401Z,1.60
2023-02-22T19:07:07.232Z,2.20
2023-02-22T19:09:56.218Z,1.60
2023-02-22T19:12:45.510Z,2.00
2023-02-22T19:15:36.009Z,1.70
2023-02-22T19:18:25.143Z,1.87
2023-02-22T19:21:15.119Z,1.97
2023-02-22T19:24:04.616Z,1.97
2023-02-22T19:26:57.519Z,1.70
2023-02-22T19:29:47.170Z,1.83
2023-02-22T19:32:40.770Z,1.87
2023-02-22T19:35:29.582Z,1.80
2023-02-22T19:38:18.149Z,1.97
2023-02-22T19:41:12.662Z,1.80
2023-02-22T19:44:03.312Z,1.73
2023-02-22T19:46:55.274Z,1.60
2023-02-22T19:49:45.107Z,1.73
2023-02-22T19:52:35.623Z,1.50
2023-02-22T19:55:24.186Z,1.70
2023-02-22T19:58:15.390Z,1.90
2023-02-22T20:01:05.194Z,1.80
2023-02-22T20:03:55.802Z,1.90
2023-02-22T20:06:47.199Z,1.80
2023-02-22T20:09:39.680Z,1.67
2023-02-22T20:12:28.957Z,1.83
2023-02-22T20:15:17.999Z,2.07
2023-02-22T20:18:07.057Z,1.80
2023-02-22T20:20:55.823Z,2.37
2023-02-22T20:23:45.781Z,2.20
2023-02-22T20:26:36.799Z,3.10
2023-02-22T20:29:29.806Z,3.87
2023-02-22T20:32:19.418Z,3.00
2023-02-22T20:35:09.473Z,3.20
2023-02-22T20:37:59.476Z,2.40
2023-02-22T20:40:49.878Z,2.30
2023-02-22T20:43:39.795Z,2.77
2023-02-22T20:46:31.815Z,2.57
2023-02-22T20:49:21.610Z,2.63
2023-02-22T20:52:10.924Z,2.10
2023-02-22T20:54:59.456Z,1.90
2023-02-22T20:57:49.786Z,2.90
2023-02-22T21:00:39.125Z,2.87
2023-02-22T21:03:28.564Z,2.37
2023-02-22T21:06:21.357Z,2.20
2023-02-22T21:09:14.184Z,2.23
2023-02-22T21:12:03.259Z,2.40
2023-02-22T21:14:53.606Z,2.23
2023-02-22T21:17:47.696Z,2.50
2023-02-22T21:20:38.826Z,2.37
2023-02-22T21:23:27.855Z,2.40
2023-02-22T21:26:19.290Z,2.10
2023-02-22T21:29:08.680Z,2.43
2023-02-22T21:32:00.070Z,2.17
2023-02-22T21:34:48.756Z,2.70
2023-02-22T21:37:37.491Z,2.30
2023-02-22T21:40:27.583Z,2.13
2023-02-22T21:43:16.768Z,2.50
2023-02-22T21:46:06.531Z,2.03
2023-02-22T21:48:58.995Z,2.17
2023-02-22T21:51:48.195Z,2.43
2023-02-22T21:54:37.056Z,2.07
2023-02-22T21:57:26.336Z,2.40
2023-02-22T22:00:17.756Z,2.47
2023-02-22T22:03:11.718Z,2.40
2023-02-22T22:06:02.128Z,2.30
2023-02-22T22:08:53.873Z,2.40
2023-02-22T22:11:42.745Z,2.27
2023-02-22T22:14:32.342Z,2.37
2023-02-22T22:17:22.112Z,2.33
2023-02-22T22:20:11.925Z,2.30
2023-02-22T22:23:02.034Z,1.90
2023-02-22T22:25:51.722Z,2.30
2023-02-22T22:28:41.499Z,2.57
2023-02-22T22:31:30.548Z,2.43
2023-02-22T22:34:19.722Z,2.13
2023-02-22T22:37:09.443Z,1.97
2023-02-22T22:39:59.951Z,2.50
2023-02-22T22:42:49.192Z,2.10
2023-02-22T22:45:39.383Z,2.43
2023-02-22T22:48:29.367Z,2.53
2023-02-22T22:51:20.772Z,2.03
2023-02-22T22:54:11.297Z,2.00
2023-02-22T22:57:01.725Z,2.40
2023-02-22T22:59:50.723Z,2.27
2023-02-22T23:02:40.753Z,2.10
2023-02-22T23:05:29.749Z,1.63
2023-02-22T23:08:20.877Z,1.80
2023-02-22T23:11:10.391Z,2.33
2023-02-22T23:14:03.522Z,2.10
2023-02-22T23:16:55.496Z,1.80
2023-02-22T23:19:46.041Z,1.90
2023-02-22T23:22:34.967Z,2.30
2023-02-22T23:25:24.349Z,2.03
2023-02-22T23:28:15.888Z,2.10
2023-02-22T23:31:09.583Z,2.20
2023-02-22T23:34:00.144Z,1.50
2023-02-22T23:36:48.836Z,1.83
2023-02-22T23:39:37.914Z,1.90
2023-02-22T23:42:27.520Z,2.03
2023-02-22T23:45:22.937Z,1.57
2023-02-22T23:48:13.724Z,2.30
2023-02-22T23:51:09.331Z,2.10
2023-02-22T23:53:58.536Z,2.27
2023-02-22T23:56:56.595Z,2.10
2023-02-22T23:59:46.002Z,2.10
